sensor_id;sensor_type;location;lat;lon;timestamp;P1;durP1;ratioP1;P2;durP2;ratioP2
6007;SDS011;3032;49.484;11.112;2023-02-21T00:01:22;14.50;;;7.40;;
6007;SDS011;3032;49.484;11.112;2023-02-21T00:04:06;12.18;;;7.20;;
6007;SDS011;3032;49.484;11.112;2023-02-21T00:06:50;16.17;;;5.70;;
6007;SDS011;3032;49.484;11.112;2023-02-21T00:09:34;11.82;;;7.63;;
6007;SDS011;3032;49.484;11.112;2023-02-21T00:12:21;19.00;;;8.57;;
6007;SDS011;3032;49.484;11.112;2023-02-21T00:15:06;18.45;;;9.80;;
6007;SDS011;3032;49.484;11.112;2023-02-21T00:17:50;14.38;;;8.80;;
6007;SDS011;3032;49.484;11.112;2023-02-21T00:20:34;23.17;;;8.35;;
6007;SDS011;3032;49.484;11.112;2023-02-21T00:23:19;17.40;;;7.60;;
6007;SDS011;3032;49.484;11.112;2023-02-21T00:26:03;18.35;;;9.68;;
6007;SDS011;3032;49.484;11.112;2023-02-21T00:28:47;9.55;;;5.28;;
6007;SDS011;3032;49.484;11.112;2023-02-21T00:31:31;16.35;;;7.47;;
6007;SDS011;3032;49.484;11.112;2023-02-21T00:34:16;19.80;;;10.93;;
6007;SDS011;3032;49.484;11.112;2023-02-21T00:37:00;33.30;;;16.45;;
6007;SDS011;3032;49.484;11.112;2023-02-21T00:39:44;43.22;;;20.83;;
6007;SDS011;3032;49.484;11.112;2023-02-21T00:42:29;35.40;;;17.70;;
6007;SDS011;3032;49.484;11.112;2023-02-21T00:45:13;21.67;;;14.23;;
6007;SDS011;3032;49.484;11.112;2023-02-21T00:47:57;23.25;;;11.50;;
6007;SDS011;3032;49.484;11.112;2023-02-21T00:50:42;20.75;;;13.00;;
6007;SDS011;3032;49.484;11.112;2023-02-21T00:53:26;20.23;;;11.70;;
6007;SDS011;3032;49.484;11.112;2023-02-21T00:56:10;28.25;;;14.82;;
6007;SDS011;3032;49.484;11.112;2023-02-21T00:58:54;20.40;;;11.15;;
6007;SDS011;3032;49.484;11.112;2023-02-21T01:01:39;23.20;;;10.35;;
6007;SDS011;3032;49.484;11.112;2023-02-21T01:04:23;13.40;;;7.97;;
6007;SDS011;3032;49.484;11.112;2023-02-21T01:07:07;7.72;;;5.05;;
6007;SDS011;3032;49.484;11.112;2023-02-21T01:09:51;10.77;;;4.90;;
6007;SDS011;3032;49.484;11.112;2023-02-21T01:12:35;8.60;;;5.55;;
6007;SDS011;3032;49.484;11.112;2023-02-21T01:15:19;13.45;;;6.30;;
6007;SDS011;3032;49.484;11.112;2023-02-21T01:18:03;7.35;;;4.90;;
6007;SDS011;3032;49.484;11.112;2023-02-21T01:20:48;13.15;;;5.88;;
6007;SDS011;3032;49.484;11.112;2023-02-21T01:23:32;12.07;;;5.13;;
6007;SDS011;3032;49.484;11.112;2023-02-21T01:26:16;7.60;;;4.55;;
6007;SDS011;3032;49.484;11.112;2023-02-21T01:29:01;8.63;;;4.70;;
6007;SDS011;3032;49.484;11.112;2023-02-21T01:31:45;9.80;;;4.88;;
6007;SDS011;3032;49.484;11.112;2023-02-21T01:34:31;11.05;;;4.43;;
6007;SDS011;3032;49.484;11.112;2023-02-21T01:37:15;7.30;;;4.60;;
6007;SDS011;3032;49.484;11.112;2023-02-21T01:40:00;7.65;;;4.20;;
6007;SDS011;3032;49.484;11.112;2023-02-21T01:42:44;7.35;;;4.20;;
6007;SDS011;3032;49.484;11.112;2023-02-21T01:45:35;7.68;;;4.53;;
6007;SDS011;3032;49.484;11.112;2023-02-21T01:48:27;11.60;;;4.70;;
6007;SDS011;3032;49.484;11.112;2023-02-21T01:51:13;7.70;;;4.13;;
6007;SDS011;3032;49.484;11.112;2023-02-21T01:54:03;8.93;;;4.60;;
6007;SDS011;3032;49.484;11.112;2023-02-21T01:56:50;8.40;;;5.00;;
6007;SDS011;3032;49.484;11.112;2023-02-21T01:59:34;8.95;;;5.07;;
6007;SDS011;3032;49.484;11.112;2023-02-21T02:02:33;8.70;;;4.32;;
6007;SDS011;3032;49.484;11.112;2023-02-21T02:05:39;13.13;;;4.63;;
6007;SDS011;3032;49.484;11.112;2023-02-21T02:08:27;10.90;;;5.93;;
6007;SDS011;3032;49.484;11.112;2023-02-21T02:11:37;13.60;;;5.50;;
6007;SDS011;3032;49.484;11.112;2023-02-21T02:36:32;9.18;;;3.90;;
6007;SDS011;3032;49.484;11.112;2023-02-21T02:44:19;9.53;;;4.17;;
6007;SDS011;3032;49.484;11.112;2023-02-21T02:46:52;9.48;;;4.68;;
6007;SDS011;3032;49.484;11.112;2023-02-21T02:49:24;5.82;;;4.10;;
6007;SDS011;3032;49.484;11.112;2023-02-21T02:51:52;11.10;;;4.85;;
6007;SDS011;3032;49.484;11.112;2023-02-21T02:54:18;6.15;;;4.35;;
6007;SDS011;3032;49.484;11.112;2023-02-21T02:56:44;5.90;;;4.23;;
6007;SDS011;3032;49.484;11.112;2023-02-21T02:59:11;8.55;;;4.38;;
6007;SDS011;3032;49.484;11.112;2023-02-21T03:01:51;6.78;;;4.40;;
6007;SDS011;3032;49.484;11.112;2023-02-21T03:15:47;6.45;;;4.40;;
6007;SDS011;3032;49.484;11.112;2023-02-21T03:21:14;6.22;;;4.97;;
6007;SDS011;3032;49.484;11.112;2023-02-21T03:23:47;6.07;;;4.22;;
6007;SDS011;3032;49.484;11.112;2023-02-21T03:26:15;9.02;;;5.15;;
6007;SDS011;3032;49.484;11.112;2023-02-21T03:28:41;9.48;;;4.43;;
6007;SDS011;3032;49.484;11.112;2023-02-21T03:31:08;9.20;;;4.38;;
6007;SDS011;3032;49.484;11.112;2023-02-21T03:33:36;8.10;;;4.75;;
6007;SDS011;3032;49.484;11.112;2023-02-21T03:36:04;7.97;;;4.80;;
6007;SDS011;3032;49.484;11.112;2023-02-21T03:38:30;5.07;;;4.10;;
6007;SDS011;3032;49.484;11.112;2023-02-21T03:40:56;9.10;;;4.43;;
6007;SDS011;3032;49.484;11.112;2023-02-21T03:43:22;7.93;;;4.27;;
6007;SDS011;3032;49.484;11.112;2023-02-21T03:45:48;7.90;;;4.67;;
6007;SDS011;3032;49.484;11.112;2023-02-21T03:48:13;11.80;;;5.13;;
6007;SDS011;3032;49.484;11.112;2023-02-21T03:50:39;9.18;;;3.75;;
6007;SDS011;3032;49.484;11.112;2023-02-21T03:53:05;13.63;;;4.40;;
6007;SDS011;3032;49.484;11.112;2023-02-21T03:55:31;6.90;;;4.50;;
6007;SDS011;3032;49.484;11.112;2023-02-21T03:57:56;7.87;;;4.47;;
6007;SDS011;3032;49.484;11.112;2023-02-21T04:00:22;10.10;;;5.00;;
6007;SDS011;3032;49.484;11.112;2023-02-21T04:02:47;9.40;;;5.20;;
6007;SDS011;3032;49.484;11.112;2023-02-21T04:05:13;9.13;;;4.40;;
6007;SDS011;3032;49.484;11.112;2023-02-21T04:07:38;10.30;;;4.40;;
6007;SDS011;3032;49.484;11.112;2023-02-21T04:10:04;6.03;;;4.63;;
6007;SDS011;3032;49.484;11.112;2023-02-21T04:12:30;5.93;;;4.50;;
6007;SDS011;3032;49.484;11.112;2023-02-21T04:14:55;5.23;;;3.70;;
6007;SDS011;3032;49.484;11.112;2023-02-21T04:17:22;8.18;;;4.80;;
6007;SDS011;3032;49.484;11.112;2023-02-21T04:19:48;7.00;;;4.77;;
6007;SDS011;3032;49.484;11.112;2023-02-21T04:22:13;9.93;;;4.40;;
6007;SDS011;3032;49.484;11.112;2023-02-21T04:24:39;7.27;;;4.20;;
6007;SDS011;3032;49.484;11.112;2023-02-21T04:27:05;6.90;;;4.30;;
6007;SDS011;3032;49.484;11.112;2023-02-21T04:29:30;6.33;;;4.23;;
6007;SDS011;3032;49.484;11.112;2023-02-21T04:31:56;7.53;;;4.17;;
6007;SDS011;3032;49.484;11.112;2023-02-21T04:34:21;6.30;;;3.97;;
6007;SDS011;3032;49.484;11.112;2023-02-21T04:36:47;7.07;;;3.70;;
6007;SDS011;3032;49.484;11.112;2023-02-21T04:39:13;6.20;;;3.87;;
6007;SDS011;3032;49.484;11.112;2023-02-21T04:41:38;6.50;;;3.90;;
6007;SDS011;3032;49.484;11.112;2023-02-21T04:44:04;6.07;;;3.77;;
6007;SDS011;3032;49.484;11.112;2023-02-21T04:46:30;7.10;;;4.17;;
6007;SDS011;3032;49.484;11.112;2023-02-21T04:48:56;7.10;;;4.23;;
6007;SDS011;3032;49.484;11.112;2023-02-21T04:51:23;8.20;;;4.20;;
6007;SDS011;3032;49.484;11.112;2023-02-21T04:53:50;8.25;;;3.65;;
6007;SDS011;3032;49.484;11.112;2023-02-21T04:56:20;8.70;;;4.50;;
6007;SDS011;3032;49.484;11.112;2023-02-21T04:58:47;5.88;;;4.10;;
6007;SDS011;3032;49.484;11.112;2023-02-21T05:01:14;9.30;;;4.10;;
6007;SDS011;3032;49.484;11.112;2023-02-21T05:03:40;4.90;;;4.38;;
6007;SDS011;3032;49.484;11.112;2023-02-21T05:06:06;5.73;;;4.20;;
6007;SDS011;3032;49.484;11.112;2023-02-21T05:08:31;8.53;;;3.90;;
6007;SDS011;3032;49.484;11.112;2023-02-21T05:10:57;7.27;;;3.93;;
6007;SDS011;3032;49.484;11.112;2023-02-21T05:13:22;5.07;;;3.83;;
6007;SDS011;3032;49.484;11.112;2023-02-21T05:15:48;4.80;;;3.80;;
6007;SDS011;3032;49.484;11.112;2023-02-21T05:18:14;6.97;;;4.30;;
6007;SDS011;3032;49.484;11.112;2023-02-21T05:20:50;8.25;;;4.78;;
6007;SDS011;3032;49.484;11.112;2023-02-21T05:23:16;5.50;;;4.20;;
6007;SDS011;3032;49.484;11.112;2023-02-21T05:25:43;6.40;;;4.47;;
6007;SDS011;3032;49.484;11.112;2023-02-21T05:28:09;9.38;;;4.80;;
6007;SDS011;3032;49.484;11.112;2023-02-21T05:30:34;9.90;;;4.90;;
6007;SDS011;3032;49.484;11.112;2023-02-21T05:33:00;8.10;;;4.50;;
6007;SDS011;3032;49.484;11.112;2023-02-21T05:35:26;11.77;;;4.93;;
6007;SDS011;3032;49.484;11.112;2023-02-21T05:37:51;9.40;;;5.00;;
6007;SDS011;3032;49.484;11.112;2023-02-21T05:40:17;8.33;;;5.27;;
6007;SDS011;3032;49.484;11.112;2023-02-21T05:42:43;8.93;;;5.83;;
6007;SDS011;3032;49.484;11.112;2023-02-21T05:45:08;13.27;;;6.30;;
6007;SDS011;3032;49.484;11.112;2023-02-21T05:47:35;10.02;;;5.85;;
6007;SDS011;3032;49.484;11.112;2023-02-21T05:50:01;13.40;;;5.73;;
6007;SDS011;3032;49.484;11.112;2023-02-21T05:52:28;10.00;;;6.57;;
6007;SDS011;3032;49.484;11.112;2023-02-21T05:54:53;8.23;;;5.30;;
6007;SDS011;3032;49.484;11.112;2023-02-21T05:57:19;10.33;;;5.40;;
6007;SDS011;3032;49.484;11.112;2023-02-21T05:59:45;7.90;;;5.80;;
6007;SDS011;3032;49.484;11.112;2023-02-21T06:02:13;11.68;;;6.65;;
6007;SDS011;3032;49.484;11.112;2023-02-21T06:04:39;7.93;;;5.80;;
6007;SDS011;3032;49.484;11.112;2023-02-21T06:07:04;8.23;;;5.37;;
6007;SDS011;3032;49.484;11.112;2023-02-21T06:09:30;6.03;;;4.40;;
6007;SDS011;3032;49.484;11.112;2023-02-21T06:11:55;9.50;;;5.57;;
6007;SDS011;3032;49.484;11.112;2023-02-21T06:14:21;8.13;;;5.23;;
6007;SDS011;3032;49.484;11.112;2023-02-21T06:16:47;13.68;;;5.18;;
6007;SDS011;3032;49.484;11.112;2023-02-21T06:19:16;8.43;;;5.47;;
6007;SDS011;3032;49.484;11.112;2023-02-21T06:21:43;8.60;;;5.25;;
6007;SDS011;3032;49.484;11.112;2023-02-21T06:24:09;7.93;;;4.97;;
6007;SDS011;3032;49.484;11.112;2023-02-21T06:26:36;9.30;;;4.90;;
6007;SDS011;3032;49.484;11.112;2023-02-21T06:29:03;7.15;;;5.43;;
6007;SDS011;3032;49.484;11.112;2023-02-21T06:31:29;15.27;;;5.13;;
6007;SDS011;3032;49.484;11.112;2023-02-21T06:33:55;8.40;;;5.07;;
6007;SDS011;3032;49.484;11.112;2023-02-21T06:36:21;10.43;;;4.80;;
6007;SDS011;3032;49.484;11.112;2023-02-21T06:38:50;9.55;;;5.32;;
6007;SDS011;3032;49.484;11.112;2023-02-21T06:41:20;9.27;;;5.07;;
6007;SDS011;3032;49.484;11.112;2023-02-21T06:43:51;8.27;;;5.35;;
6007;SDS011;3032;49.484;11.112;2023-02-21T06:46:17;8.95;;;4.90;;
6007;SDS011;3032;49.484;11.112;2023-02-21T06:48:44;7.50;;;4.90;;
6007;SDS011;3032;49.484;11.112;2023-02-21T06:51:10;12.10;;;5.73;;
6007;SDS011;3032;49.484;11.112;2023-02-21T06:53:36;11.23;;;5.37;;
6007;SDS011;3032;49.484;11.112;2023-02-21T06:56:02;11.18;;;5.53;;
6007;SDS011;3032;49.484;11.112;2023-02-21T06:58:29;9.95;;;5.50;;
6007;SDS011;3032;49.484;11.112;2023-02-21T07:00:54;11.03;;;5.30;;
6007;SDS011;3032;49.484;11.112;2023-02-21T07:03:20;8.00;;;4.83;;
6007;SDS011;3032;49.484;11.112;2023-02-21T07:05:45;10.73;;;5.90;;
6007;SDS011;3032;49.484;11.112;2023-02-21T07:08:11;8.90;;;5.73;;
6007;SDS011;3032;49.484;11.112;2023-02-21T07:10:36;8.37;;;5.73;;
6007;SDS011;3032;49.484;11.112;2023-02-21T07:13:02;10.90;;;6.43;;
6007;SDS011;3032;49.484;11.112;2023-02-21T07:15:28;9.50;;;6.23;;
6007;SDS011;3032;49.484;11.112;2023-02-21T07:17:53;10.27;;;7.20;;
6007;SDS011;3032;49.484;11.112;2023-02-21T07:20:19;10.07;;;5.93;;
6007;SDS011;3032;49.484;11.112;2023-02-21T07:22:44;12.83;;;6.97;;
6007;SDS011;3032;49.484;11.112;2023-02-21T07:25:17;13.43;;;6.93;;
6007;SDS011;3032;49.484;11.112;2023-02-21T07:27:45;9.30;;;6.10;;
6007;SDS011;3032;49.484;11.112;2023-02-21T07:30:12;8.60;;;6.10;;
6007;SDS011;3032;49.484;11.112;2023-02-21T07:32:38;12.38;;;6.40;;
6007;SDS011;3032;49.484;11.112;2023-02-21T07:35:04;10.67;;;6.70;;
6007;SDS011;3032;49.484;11.112;2023-02-21T07:37:29;13.63;;;7.43;;
6007;SDS011;3032;49.484;11.112;2023-02-21T07:39:55;9.23;;;5.80;;
6007;SDS011;3032;49.484;11.112;2023-02-21T07:42:21;12.43;;;6.50;;
6007;SDS011;3032;49.484;11.112;2023-02-21T07:44:46;11.73;;;6.70;;
6007;SDS011;3032;49.484;11.112;2023-02-21T07:47:12;10.43;;;6.85;;
6007;SDS011;3032;49.484;11.112;2023-02-21T07:49:38;15.30;;;7.20;;
6007;SDS011;3032;49.484;11.112;2023-02-21T07:52:04;20.35;;;8.13;;
6007;SDS011;3032;49.484;11.112;2023-02-21T07:54:30;12.67;;;7.30;;
6007;SDS011;3032;49.484;11.112;2023-02-21T07:56:56;14.00;;;7.90;;
6007;SDS011;3032;49.484;11.112;2023-02-21T07:59:21;13.00;;;7.20;;
6007;SDS011;3032;49.484;11.112;2023-02-21T08:01:47;10.05;;;6.85;;
6007;SDS011;3032;49.484;11.112;2023-02-21T08:04:13;12.80;;;7.53;;
6007;SDS011;3032;49.484;11.112;2023-02-21T08:06:39;9.20;;;6.28;;
6007;SDS011;3032;49.484;11.112;2023-02-21T08:09:05;12.33;;;7.03;;
6007;SDS011;3032;49.484;11.112;2023-02-21T08:11:30;11.27;;;7.30;;
6007;SDS011;3032;49.484;11.112;2023-02-21T08:13:58;10.38;;;6.50;;
6007;SDS011;3032;49.484;11.112;2023-02-21T08:16:23;10.10;;;6.17;;
6007;SDS011;3032;49.484;11.112;2023-02-21T08:18:49;8.53;;;5.87;;
6007;SDS011;3032;49.484;11.112;2023-02-21T08:21:15;9.67;;;6.07;;
6007;SDS011;3032;49.484;11.112;2023-02-21T08:23:41;10.75;;;6.72;;
6007;SDS011;3032;49.484;11.112;2023-02-21T08:26:06;12.03;;;6.40;;
6007;SDS011;3032;49.484;11.112;2023-02-21T08:28:32;12.63;;;6.60;;
6007;SDS011;3032;49.484;11.112;2023-02-21T08:30:58;9.70;;;6.00;;
6007;SDS011;3032;49.484;11.112;2023-02-21T08:33:23;8.90;;;6.00;;
6007;SDS011;3032;49.484;11.112;2023-02-21T08:35:49;9.40;;;6.30;;
6007;SDS011;3032;49.484;11.112;2023-02-21T08:38:17;7.83;;;5.70;;
6007;SDS011;3032;49.484;11.112;2023-02-21T08:40:43;9.93;;;5.65;;
6007;SDS011;3032;49.484;11.112;2023-02-21T08:43:09;6.50;;;5.20;;
6007;SDS011;3032;49.484;11.112;2023-02-21T08:45:35;7.13;;;6.38;;
6007;SDS011;3032;49.484;11.112;2023-02-21T08:48:01;7.47;;;5.40;;
6007;SDS011;3032;49.484;11.112;2023-02-21T08:50:27;7.90;;;5.75;;
6007;SDS011;3032;49.484;11.112;2023-02-21T08:52:53;11.27;;;6.57;;
6007;SDS011;3032;49.484;11.112;2023-02-21T08:55:20;9.10;;;6.18;;
6007;SDS011;3032;49.484;11.112;2023-02-21T08:57:49;8.60;;;6.10;;
6007;SDS011;3032;49.484;11.112;2023-02-21T09:00:17;9.43;;;6.80;;
6007;SDS011;3032;49.484;11.112;2023-02-21T09:02:47;9.63;;;6.18;;
6007;SDS011;3032;49.484;11.112;2023-02-21T09:05:15;7.90;;;5.47;;
6007;SDS011;3032;49.484;11.112;2023-02-21T09:07:43;8.73;;;5.55;;
6007;SDS011;3032;49.484;11.112;2023-02-21T09:10:11;8.88;;;7.05;;
6007;SDS011;3032;49.484;11.112;2023-02-21T09:12:37;7.97;;;6.77;;
6007;SDS011;3032;49.484;11.112;2023-02-21T09:15:03;10.65;;;6.32;;
6007;SDS011;3032;49.484;11.112;2023-02-21T09:17:30;10.70;;;6.80;;
6007;SDS011;3032;49.484;11.112;2023-02-21T09:19:59;8.35;;;6.15;;
6007;SDS011;3032;49.484;11.112;2023-02-21T09:22:26;14.38;;;7.18;;
6007;SDS011;3032;49.484;11.112;2023-02-21T09:24:52;14.60;;;7.10;;
6007;SDS011;3032;49.484;11.112;2023-02-21T09:27:17;8.07;;;6.20;;
6007;SDS011;3032;49.484;11.112;2023-02-21T09:29:44;10.50;;;7.78;;
6007;SDS011;3032;49.484;11.112;2023-02-21T09:32:11;11.35;;;6.60;;
6007;SDS011;3032;49.484;11.112;2023-02-21T09:34:37;9.23;;;5.20;;
6007;SDS011;3032;49.484;11.112;2023-02-21T09:37:05;11.93;;;6.30;;
6007;SDS011;3032;49.484;11.112;2023-02-21T09:39:31;9.70;;;5.57;;
6007;SDS011;3032;49.484;11.112;2023-02-21T09:41:56;7.63;;;5.83;;
6007;SDS011;3032;49.484;11.112;2023-02-21T09:44:23;7.35;;;6.18;;
6007;SDS011;3032;49.484;11.112;2023-02-21T09:46:57;7.45;;;6.53;;
6007;SDS011;3032;49.484;11.112;2023-02-21T09:49:27;11.10;;;7.18;;
6007;SDS011;3032;49.484;11.112;2023-02-21T09:51:57;9.35;;;6.75;;
6007;SDS011;3032;49.484;11.112;2023-02-21T09:54:34;8.40;;;6.85;;
6007;SDS011;3032;49.484;11.112;2023-02-21T09:57:04;8.00;;;5.95;;
6007;SDS011;3032;49.484;11.112;2023-02-21T09:59:34;6.85;;;6.05;;
6007;SDS011;3032;49.484;11.112;2023-02-21T10:07:44;9.45;;;6.40;;
6007;SDS011;3032;49.484;11.112;2023-02-21T10:10:34;14.90;;;6.80;;
6007;SDS011;3032;49.484;11.112;2023-02-21T10:15:49;10.77;;;6.68;;
6007;SDS011;3032;49.484;11.112;2023-02-21T10:21:24;12.27;;;5.60;;
6007;SDS011;3032;49.484;11.112;2023-02-21T10:23:54;7.65;;;6.00;;
6007;SDS011;3032;49.484;11.112;2023-02-21T10:26:28;8.32;;;6.35;;
6007;SDS011;3032;49.484;11.112;2023-02-21T10:28:57;7.43;;;5.85;;
6007;SDS011;3032;49.484;11.112;2023-02-21T10:31:34;9.30;;;5.95;;
6007;SDS011;3032;49.484;11.112;2023-02-21T10:34:05;8.20;;;5.20;;
6007;SDS011;3032;49.484;11.112;2023-02-21T10:36:39;7.82;;;5.50;;
6007;SDS011;3032;49.484;11.112;2023-02-21T10:39:05;7.83;;;6.40;;
6007;SDS011;3032;49.484;11.112;2023-02-21T10:41:39;13.38;;;5.95;;
6007;SDS011;3032;49.484;11.112;2023-02-21T10:44:16;9.05;;;5.90;;
6007;SDS011;3032;49.484;11.112;2023-02-21T10:46:46;7.50;;;6.10;;
6007;SDS011;3032;49.484;11.112;2023-02-21T10:49:20;6.70;;;5.32;;
6007;SDS011;3032;49.484;11.112;2023-02-21T10:52:01;8.18;;;5.97;;
6007;SDS011;3032;49.484;11.112;2023-02-21T10:54:38;7.03;;;4.97;;
6007;SDS011;3032;49.484;11.112;2023-02-21T10:57:07;7.75;;;5.25;;
6007;SDS011;3032;49.484;11.112;2023-02-21T10:59:39;5.82;;;5.22;;
6007;SDS011;3032;49.484;11.112;2023-02-21T11:02:25;5.95;;;5.32;;
6007;SDS011;3032;49.484;11.112;2023-02-21T11:05:07;7.25;;;5.30;;
6007;SDS011;3032;49.484;11.112;2023-02-21T11:07:37;6.32;;;5.40;;
6007;SDS011;3032;49.484;11.112;2023-02-21T11:10:23;7.47;;;5.80;;
6007;SDS011;3032;49.484;11.112;2023-02-21T11:13:01;8.82;;;5.43;;
6007;SDS011;3032;49.484;11.112;2023-02-21T11:15:32;6.28;;;5.03;;
6007;SDS011;3032;49.484;11.112;2023-02-21T11:18:02;8.43;;;5.38;;
6007;SDS011;3032;49.484;11.112;2023-02-21T11:20:30;5.40;;;4.90;;
6007;SDS011;3032;49.484;11.112;2023-02-21T11:22:56;11.13;;;8.27;;
6007;SDS011;3032;49.484;11.112;2023-02-21T11:25:26;4.90;;;4.50;;
6007;SDS011;3032;49.484;11.112;2023-02-21T11:28:00;4.47;;;4.03;;
6007;SDS011;3032;49.484;11.112;2023-02-21T11:30:26;4.47;;;4.18;;
6007;SDS011;3032;49.484;11.112;2023-02-21T11:32:55;5.18;;;4.53;;
6007;SDS011;3032;49.484;11.112;2023-02-21T11:35:23;4.03;;;3.70;;
6007;SDS011;3032;49.484;11.112;2023-02-21T11:40:31;4.18;;;3.88;;
6007;SDS011;3032;49.484;11.112;2023-02-21T11:43:24;4.45;;;4.05;;
6007;SDS011;3032;49.484;11.112;2023-02-21T11:48:36;6.43;;;4.35;;
6007;SDS011;3032;49.484;11.112;2023-02-21T11:51:25;4.07;;;3.50;;
6007;SDS011;3032;49.484;11.112;2023-02-21T11:54:02;3.53;;;3.28;;
6007;SDS011;3032;49.484;11.112;2023-02-21T11:56:31;3.63;;;3.35;;
6007;SDS011;3032;49.484;11.112;2023-02-21T12:09:51;6.25;;;3.47;;
6007;SDS011;3032;49.484;11.112;2023-02-21T12:18:30;3.45;;;2.75;;
6007;SDS011;3032;49.484;11.112;2023-02-21T12:27:17;2.05;;;1.95;;
6007;SDS011;3032;49.484;11.112;2023-02-21T12:29:55;2.30;;;2.10;;
6007;SDS011;3032;49.484;11.112;2023-02-21T12:35:06;2.10;;;1.90;;
6007;SDS011;3032;49.484;11.112;2023-02-21T12:45:50;2.20;;;2.00;;
6007;SDS011;3032;49.484;11.112;2023-02-21T12:48:38;5.32;;;2.00;;
6007;SDS011;3032;49.484;11.112;2023-02-21T12:51:31;4.75;;;1.90;;
6007;SDS011;3032;49.484;11.112;2023-02-21T12:56:38;1.83;;;1.70;;
6007;SDS011;3032;49.484;11.112;2023-02-21T12:59:24;4.50;;;1.63;;
6007;SDS011;3032;49.484;11.112;2023-02-21T13:01:58;1.90;;;1.80;;
6007;SDS011;3032;49.484;11.112;2023-02-21T13:04:35;2.25;;;2.05;;
6007;SDS011;3032;49.484;11.112;2023-02-21T13:10:03;1.80;;;1.70;;
6007;SDS011;3032;49.484;11.112;2023-02-21T13:12:56;1.75;;;1.40;;
6007;SDS011;3032;49.484;11.112;2023-02-21T13:15:30;2.85;;;2.10;;
6007;SDS011;3032;49.484;11.112;2023-02-21T13:18:06;1.50;;;1.40;;
6007;SDS011;3032;49.484;11.112;2023-02-21T13:20:43;1.80;;;1.50;;
6007;SDS011;3032;49.484;11.112;2023-02-21T13:29:09;3.20;;;1.55;;
6007;SDS011;3032;49.484;11.112;2023-02-21T13:31:42;1.40;;;1.30;;
6007;SDS011;3032;49.484;11.112;2023-02-21T13:34:10;2.42;;;1.67;;
6007;SDS011;3032;49.484;11.112;2023-02-21T13:41:35;2.58;;;1.50;;
6007;SDS011;3032;49.484;11.112;2023-02-21T13:44:46;1.00;;;1.00;;
6007;SDS011;3032;49.484;11.112;2023-02-21T13:47:07;1.10;;;1.00;;
6007;SDS011;3032;49.484;11.112;2023-02-21T14:03:04;2.00;;;1.90;;
6007;SDS011;3032;49.484;11.112;2023-02-21T14:11:24;1.52;;;1.40;;
6007;SDS011;3032;49.484;11.112;2023-02-21T14:14:26;3.72;;;1.10;;
6007;SDS011;3032;49.484;11.112;2023-02-21T14:19:32;1.38;;;0.90;;
6007;SDS011;3032;49.484;11.112;2023-02-21T14:22:14;1.10;;;1.10;;
6007;SDS011;3032;49.484;11.112;2023-02-21T14:24:46;0.98;;;0.75;;
6007;SDS011;3032;49.484;11.112;2023-02-21T14:30:13;2.15;;;1.15;;
6007;SDS011;3032;49.484;11.112;2023-02-21T14:37:44;1.10;;;1.10;;
6007;SDS011;3032;49.484;11.112;2023-02-21T14:40:17;1.10;;;1.10;;
6007;SDS011;3032;49.484;11.112;2023-02-21T14:51:50;2.63;;;1.15;;
6007;SDS011;3032;49.484;11.112;2023-02-21T15:02:50;1.13;;;1.00;;
6007;SDS011;3032;49.484;11.112;2023-02-21T15:10:41;1.17;;;1.13;;
6007;SDS011;3032;49.484;11.112;2023-02-21T15:13:24;1.30;;;1.20;;
6007;SDS011;3032;49.484;11.112;2023-02-21T15:15:56;2.28;;;1.10;;
6007;SDS011;3032;49.484;11.112;2023-02-21T15:18:28;2.50;;;1.60;;
6007;SDS011;3032;49.484;11.112;2023-02-21T15:21:03;1.10;;;1.10;;
6007;SDS011;3032;49.484;11.112;2023-02-21T15:23:29;1.35;;;1.25;;
6007;SDS011;3032;49.484;11.112;2023-02-21T15:25:56;0.95;;;0.95;;
6007;SDS011;3032;49.484;11.112;2023-02-21T15:28:28;0.90;;;0.90;;
6007;SDS011;3032;49.484;11.112;2023-02-21T15:30:59;1.45;;;1.35;;
6007;SDS011;3032;49.484;11.112;2023-02-21T15:33:42;1.20;;;1.10;;
6007;SDS011;3032;49.484;11.112;2023-02-21T15:36:17;1.88;;;1.02;;
6007;SDS011;3032;49.484;11.112;2023-02-21T15:38:49;1.20;;;1.02;;
6007;SDS011;3032;49.484;11.112;2023-02-21T15:46:50;1.92;;;1.52;;
6007;SDS011;3032;49.484;11.112;2023-02-21T15:49:31;1.25;;;1.15;;
6007;SDS011;3032;49.484;11.112;2023-02-21T15:52:25;3.97;;;1.52;;
6007;SDS011;3032;49.484;11.112;2023-02-21T15:57:44;2.22;;;1.95;;
6007;SDS011;3032;49.484;11.112;2023-02-21T16:00:30;2.67;;;1.45;;
6007;SDS011;3032;49.484;11.112;2023-02-21T16:06:15;1.55;;;1.13;;
6007;SDS011;3032;49.484;11.112;2023-02-21T16:11:40;1.60;;;1.50;;
6007;SDS011;3032;49.484;11.112;2023-02-21T16:14:14;1.60;;;1.50;;
6007;SDS011;3032;49.484;11.112;2023-02-21T16:17:21;1.42;;;1.42;;
6007;SDS011;3032;49.484;11.112;2023-02-21T16:19:51;1.85;;;1.70;;
6007;SDS011;3032;49.484;11.112;2023-02-21T16:22:28;1.75;;;1.65;;
6007;SDS011;3032;49.484;11.112;2023-02-21T16:27:36;2.15;;;1.30;;
6007;SDS011;3032;49.484;11.112;2023-02-21T16:30:04;3.50;;;2.28;;
6007;SDS011;3032;49.484;11.112;2023-02-21T16:32:30;3.13;;;2.13;;
6007;SDS011;3032;49.484;11.112;2023-02-21T16:34:57;2.58;;;2.35;;
6007;SDS011;3032;49.484;11.112;2023-02-21T16:37:22;2.70;;;2.50;;
6007;SDS011;3032;49.484;11.112;2023-02-21T16:39:49;2.30;;;2.10;;
6007;SDS011;3032;49.484;11.112;2023-02-21T16:42:15;3.13;;;2.90;;
6007;SDS011;3032;49.484;11.112;2023-02-21T16:44:43;2.60;;;2.40;;
6007;SDS011;3032;49.484;11.112;2023-02-21T16:47:12;1.60;;;1.50;;
6007;SDS011;3032;49.484;11.112;2023-02-21T16:49:39;2.00;;;1.90;;
6007;SDS011;3032;49.484;11.112;2023-02-21T16:52:08;2.00;;;1.90;;
6007;SDS011;3032;49.484;11.112;2023-02-21T16:54:37;1.83;;;1.67;;
6007;SDS011;3032;49.484;11.112;2023-02-21T16:57:03;2.17;;;1.60;;
6007;SDS011;3032;49.484;11.112;2023-02-21T16:59:28;1.80;;;1.70;;
6007;SDS011;3032;49.484;11.112;2023-02-21T17:01:54;2.20;;;2.10;;
6007;SDS011;3032;49.484;11.112;2023-02-21T17:04:21;3.00;;;2.80;;
6007;SDS011;3032;49.484;11.112;2023-02-21T17:06:53;4.72;;;3.85;;
6007;SDS011;3032;49.484;11.112;2023-02-21T17:09:24;3.92;;;3.60;;
6007;SDS011;3032;49.484;11.112;2023-02-21T17:11:51;5.03;;;3.60;;
6007;SDS011;3032;49.484;11.112;2023-02-21T17:14:17;3.63;;;3.33;;
6007;SDS011;3032;49.484;11.112;2023-02-21T17:16:44;4.45;;;3.67;;
6007;SDS011;3032;49.484;11.112;2023-02-21T17:19:11;4.50;;;4.10;;
6007;SDS011;3032;49.484;11.112;2023-02-21T17:21:38;5.00;;;4.47;;
6007;SDS011;3032;49.484;11.112;2023-02-21T17:24:04;5.40;;;4.87;;
6007;SDS011;3032;49.484;11.112;2023-02-21T17:26:29;6.43;;;4.90;;
6007;SDS011;3032;49.484;11.112;2023-02-21T17:28:55;5.30;;;4.00;;
6007;SDS011;3032;49.484;11.112;2023-02-21T17:31:20;4.63;;;4.23;;
6007;SDS011;3032;49.484;11.112;2023-02-21T17:33:46;3.53;;;3.23;;
6007;SDS011;3032;49.484;11.112;2023-02-21T17:36:19;5.30;;;3.80;;
6007;SDS011;3032;49.484;11.112;2023-02-21T17:38:46;4.47;;;3.92;;
6007;SDS011;3032;49.484;11.112;2023-02-21T17:41:12;4.00;;;3.70;;
6007;SDS011;3032;49.484;11.112;2023-02-21T17:43:39;4.03;;;3.72;;
6007;SDS011;3032;49.484;11.112;2023-02-21T17:46:07;4.78;;;3.75;;
6007;SDS011;3032;49.484;11.112;2023-02-21T17:48:34;5.60;;;4.38;;
6007;SDS011;3032;49.484;11.112;2023-02-21T17:51:00;5.73;;;4.90;;
6007;SDS011;3032;49.484;11.112;2023-02-21T17:53:26;5.43;;;4.93;;
6007;SDS011;3032;49.484;11.112;2023-02-21T17:55:52;7.28;;;5.82;;
6007;SDS011;3032;49.484;11.112;2023-02-21T17:58:18;9.02;;;6.60;;
6007;SDS011;3032;49.484;11.112;2023-02-21T18:00:44;7.20;;;6.50;;
6007;SDS011;3032;49.484;11.112;2023-02-21T18:03:09;7.80;;;6.10;;
6007;SDS011;3032;49.484;11.112;2023-02-21T18:05:35;7.63;;;6.57;;
6007;SDS011;3032;49.484;11.112;2023-02-21T18:08:02;9.00;;;7.30;;
6007;SDS011;3032;49.484;11.112;2023-02-21T18:10:28;10.35;;;7.38;;
6007;SDS011;3032;49.484;11.112;2023-02-21T18:12:54;7.77;;;6.10;;
6007;SDS011;3032;49.484;11.112;2023-02-21T18:15:20;7.67;;;6.60;;
6007;SDS011;3032;49.484;11.112;2023-02-21T18:17:48;9.77;;;6.20;;
6007;SDS011;3032;49.484;11.112;2023-02-21T18:20:14;8.63;;;6.43;;
6007;SDS011;3032;49.484;11.112;2023-02-21T18:22:40;9.02;;;7.07;;